sensor_id;sensor_type;location;lat;lon;timestamp;temperature;humidity
7174;DHT22;3628;48.654;8.932;2022-09-09T00:04:15;13.10;99.90
7174;DHT22;3628;48.654;8.932;2022-09-09T00:09:49;13.20;99.90
7174;DHT22;3628;48.654;8.932;2022-09-09T00:15:05;13.20;99.90
7174;DHT22;3628;48.654;8.932;2022-09-09T00:17:41;13.30;99.90
7174;DHT22;3628;48.654;8.932;2022-09-09T00:23:24;13.30;99.90
7174;DHT22;3628;48.654;8.932;2022-09-09T00:28:20;13.50;99.90
7174;DHT22;3628;48.654;8.932;2022-09-09T00:30:47;13.50;99.90
7174;DHT22;3628;48.654;8.932;2022-09-09T00:33:15;13.50;99.90
7174;DHT22;3628;48.654;8.932;2022-09-09T00:35:56;13.60;99.90
7174;DHT22;3628;48.654;8.932;2022-09-09T00:38:36;13.60;99.90
7174;DHT22;3628;48.654;8.932;2022-09-09T00:41:19;13.70;99.90
7174;DHT22;3628;48.654;8.932;2022-09-09T00:43:56;13.70;99.90
7174;DHT22;3628;48.654;8.932;2022-09-09T00:46:59;13.70;99.90
7174;DHT22;3628;48.654;8.932;2022-09-09T00:57:35;13.80;99.90
7174;DHT22;3628;48.654;8.932;2022-09-09T01:07:51;13.90;99.90
7174;DHT22;3628;48.654;8.932;2022-09-09T01:10:33;13.90;99.90
7174;DHT22;3628;48.654;8.932;2022-09-09T01:13:04;13.90;99.90
7174;DHT22;3628;48.654;8.932;2022-09-09T01:15:34;13.90;99.90
7174;DHT22;3628;48.654;8.932;2022-09-09T01:18:06;13.90;99.90
7174;DHT22;3628;48.654;8.932;2022-09-09T01:27:01;13.70;99.90
7174;DHT22;3628;48.654;8.932;2022-09-09T01:29:27;13.70;99.90
7174;DHT22;3628;48.654;8.932;2022-09-09T01:31:59;13.60;99.90
7174;DHT22;3628;48.654;8.932;2022-09-09T01:34:28;13.60;99.90
7174;DHT22;3628;48.654;8.932;2022-09-09T01:37:05;13.60;99.90
7174;DHT22;3628;48.654;8.932;2022-09-09T01:39:33;13.50;99.90
7174;DHT22;3628;48.654;8.932;2022-09-09T01:42:01;13.60;99.90
7174;DHT22;3628;48.654;8.932;2022-09-09T01:44:28;13.50;99.90
7174;DHT22;3628;48.654;8.932;2022-09-09T01:46:55;13.50;99.90
7174;DHT22;3628;48.654;8.932;2022-09-09T01:49:21;13.50;99.90
7174;DHT22;3628;48.654;8.932;2022-09-09T01:51:50;13.40;99.90
7174;DHT22;3628;48.654;8.932;2022-09-09T01:54:17;13.30;99.90
7174;DHT22;3628;48.654;8.932;2022-09-09T01:57:01;13.10;99.90
7174;DHT22;3628;48.654;8.932;2022-09-09T02:05:37;12.70;99.90
7174;DHT22;3628;48.654;8.932;2022-09-09T02:08:10;12.70;99.90
7174;DHT22;3628;48.654;8.932;2022-09-09T02:13:32;12.70;99.90
7174;DHT22;3628;48.654;8.932;2022-09-09T02:16:15;12.70;99.90
7174;DHT22;3628;48.654;8.932;2022-09-09T02:21:10;12.60;99.90
7174;DHT22;3628;48.654;8.932;2022-09-09T02:23:37;12.60;99.90
7174;DHT22;3628;48.654;8.932;2022-09-09T02:26:05;12.60;99.90
7174;DHT22;3628;48.654;8.932;2022-09-09T02:28:34;12.60;99.90
7174;DHT22;3628;48.654;8.932;2022-09-09T02:31:02;12.50;99.90
7174;DHT22;3628;48.654;8.932;2022-09-09T02:33:32;12.50;99.90
7174;DHT22;3628;48.654;8.932;2022-09-09T02:36:01;12.50;99.90
7174;DHT22;3628;48.654;8.932;2022-09-09T02:38:31;12.50;99.90
7174;DHT22;3628;48.654;8.932;2022-09-09T02:40:58;12.50;99.90
7174;DHT22;3628;48.654;8.932;2022-09-09T02:43:24;12.50;99.90
7174;DHT22;3628;48.654;8.932;2022-09-09T02:56:54;12.40;99.90
7174;DHT22;3628;48.654;8.932;2022-09-09T02:59:20;12.40;99.90
7174;DHT22;3628;48.654;8.932;2022-09-09T03:01:46;12.40;99.90
7174;DHT22;3628;48.654;8.932;2022-09-09T03:04:13;12.30;99.90
7174;DHT22;3628;48.654;8.932;2022-09-09T03:06:38;12.30;99.90
7174;DHT22;3628;48.654;8.932;2022-09-09T03:09:04;12.30;99.90
7174;DHT22;3628;48.654;8.932;2022-09-09T03:11:30;12.30;99.90
7174;DHT22;3628;48.654;8.932;2022-09-09T03:13:56;12.20;99.90
7174;DHT22;3628;48.654;8.932;2022-09-09T03:16:24;12.20;99.90
7174;DHT22;3628;48.654;8.932;2022-09-09T03:18:50;12.10;99.90
7174;DHT22;3628;48.654;8.932;2022-09-09T03:21:16;12.10;99.90
7174;DHT22;3628;48.654;8.932;2022-09-09T03:23:41;12.00;99.90
7174;DHT22;3628;48.654;8.932;2022-09-09T03:26:07;12.00;99.90
7174;DHT22;3628;48.654;8.932;2022-09-09T03:28:33;12.00;99.90
7174;DHT22;3628;48.654;8.932;2022-09-09T03:31:03;12.00;99.90
7174;DHT22;3628;48.654;8.932;2022-09-09T03:33:29;12.00;99.90
7174;DHT22;3628;48.654;8.932;2022-09-09T03:35:56;11.90;99.90
7174;DHT22;3628;48.654;8.932;2022-09-09T03:38:25;11.90;99.90
7174;DHT22;3628;48.654;8.932;2022-09-09T03:40:52;11.90;99.90
7174;DHT22;3628;48.654;8.932;2022-09-09T03:43:23;11.90;99.90
7174;DHT22;3628;48.654;8.932;2022-09-09T03:45:49;11.80;99.90
7174;DHT22;3628;48.654;8.932;2022-09-09T03:48:15;11.80;99.90
7174;DHT22;3628;48.654;8.932;2022-09-09T03:50:49;11.70;99.90
7174;DHT22;3628;48.654;8.932;2022-09-09T03:53:17;11.70;99.90
7174;DHT22;3628;48.654;8.932;2022-09-09T03:55:47;11.70;99.90
7174;DHT22;3628;48.654;8.932;2022-09-09T03:58:16;11.70;99.90
7174;DHT22;3628;48.654;8.932;2022-09-09T04:00:56;11.70;99.90
7174;DHT22;3628;48.654;8.932;2022-09-09T04:03:23;11.70;99.90
7174;DHT22;3628;48.654;8.932;2022-09-09T04:05:53;11.70;99.90
7174;DHT22;3628;48.654;8.932;2022-09-09T04:08:19;11.70;99.90
7174;DHT22;3628;48.654;8.932;2022-09-09T04:10:47;11.80;99.90
7174;DHT22;3628;48.654;8.932;2022-09-09T04:13:14;11.80;99.90
7174;DHT22;3628;48.654;8.932;2022-09-09T04:15:42;11.80;99.90
7174;DHT22;3628;48.654;8.932;2022-09-09T04:18:07;11.90;99.90
7174;DHT22;3628;48.654;8.932;2022-09-09T04:20:33;12.00;99.90
7174;DHT22;3628;48.654;8.932;2022-09-09T04:22:59;12.00;99.90
7174;DHT22;3628;48.654;8.932;2022-09-09T04:25:25;12.10;99.90
7174;DHT22;3628;48.654;8.932;2022-09-09T04:27:55;12.10;99.90
7174;DHT22;3628;48.654;8.932;2022-09-09T04:30:21;12.30;99.90
7174;DHT22;3628;48.654;8.932;2022-09-09T04:32:46;12.30;99.90
7174;DHT22;3628;48.654;8.932;2022-09-09T04:35:12;12.30;99.90
7174;DHT22;3628;48.654;8.932;2022-09-09T04:37:37;12.40;99.90
7174;DHT22;3628;48.654;8.932;2022-09-09T04:40:03;12.40;99.90
7174;DHT22;3628;48.654;8.932;2022-09-09T04:42:29;12.50;99.90
7174;DHT22;3628;48.654;8.932;2022-09-09T04:44:55;12.50;99.90
7174;DHT22;3628;48.654;8.932;2022-09-09T04:47:20;12.50;99.90
7174;DHT22;3628;48.654;8.932;2022-09-09T04:49:46;12.60;99.90
7174;DHT22;3628;48.654;8.932;2022-09-09T04:52:13;12.60;99.90
7174;DHT22;3628;48.654;8.932;2022-09-09T04:54:38;12.60;99.90
7174;DHT22;3628;48.654;8.932;2022-09-09T04:57:04;12.60;99.90
7174;DHT22;3628;48.654;8.932;2022-09-09T04:59:30;12.60;99.90
7174;DHT22;3628;48.654;8.932;2022-09-09T05:01:55;12.70;99.90
7174;DHT22;3628;48.654;8.932;2022-09-09T05:04:21;12.70;99.90
7174;DHT22;3628;48.654;8.932;2022-09-09T05:06:47;12.80;99.90
7174;DHT22;3628;48.654;8.932;2022-09-09T05:09:13;12.80;99.90
7174;DHT22;3628;48.654;8.932;2022-09-09T05:11:39;12.90;99.90
7174;DHT22;3628;48.654;8.932;2022-09-09T05:14:04;12.90;99.90
7174;DHT22;3628;48.654;8.932;2022-09-09T05:16:30;13.00;99.90
7174;DHT22;3628;48.654;8.932;2022-09-09T05:18:56;13.00;99.90
7174;DHT22;3628;48.654;8.932;2022-09-09T05:21:23;13.00;99.90
7174;DHT22;3628;48.654;8.932;2022-09-09T05:23:51;13.00;99.90
7174;DHT22;3628;48.654;8.932;2022-09-09T05:26:20;13.10;99.90
7174;DHT22;3628;48.654;8.932;2022-09-09T05:28:46;13.20;99.90
7174;DHT22;3628;48.654;8.932;2022-09-09T05:31:14;13.20;99.90
7174;DHT22;3628;48.654;8.932;2022-09-09T05:33:41;13.30;99.90
7174;DHT22;3628;48.654;8.932;2022-09-09T05:36:13;13.40;99.90
7174;DHT22;3628;48.654;8.932;2022-09-09T05:38:39;13.50;99.90
7174;DHT22;3628;48.654;8.932;2022-09-09T05:41:06;13.60;99.90
7174;DHT22;3628;48.654;8.932;2022-09-09T05:43:32;13.60;99.90
7174;DHT22;3628;48.654;8.932;2022-09-09T05:46:05;13.70;99.90
7174;DHT22;3628;48.654;8.932;2022-09-09T05:48:32;13.80;99.90
7174;DHT22;3628;48.654;8.932;2022-09-09T05:50:58;13.80;99.90
7174;DHT22;3628;48.654;8.932;2022-09-09T05:53:25;13.90;99.90
7174;DHT22;3628;48.654;8.932;2022-09-09T05:55:58;13.90;99.90
7174;DHT22;3628;48.654;8.932;2022-09-09T05:58:24;14.00;99.90
7174;DHT22;3628;48.654;8.932;2022-09-09T06:00:50;14.00;99.90
7174;DHT22;3628;48.654;8.932;2022-09-09T06:03:16;14.10;99.90
7174;DHT22;3628;48.654;8.932;2022-09-09T06:05:42;14.20;99.90
7174;DHT22;3628;48.654;8.932;2022-09-09T06:08:07;14.30;99.90
7174;DHT22;3628;48.654;8.932;2022-09-09T06:10:33;14.30;99.90
7174;DHT22;3628;48.654;8.932;2022-09-09T06:12:59;14.40;99.90
7174;DHT22;3628;48.654;8.932;2022-09-09T06:15:25;14.50;99.90
7174;DHT22;3628;48.654;8.932;2022-09-09T06:17:55;14.50;99.90
7174;DHT22;3628;48.654;8.932;2022-09-09T06:20:21;14.60;99.90
7174;DHT22;3628;48.654;8.932;2022-09-09T06:22:47;14.60;99.90
7174;DHT22;3628;48.654;8.932;2022-09-09T06:25:14;14.70;99.90
7174;DHT22;3628;48.654;8.932;2022-09-09T06:27:39;14.80;99.90
7174;DHT22;3628;48.654;8.932;2022-09-09T06:30:06;14.90;99.90
7174;DHT22;3628;48.654;8.932;2022-09-09T06:32:33;15.00;99.90
7174;DHT22;3628;48.654;8.932;2022-09-09T06:34:59;15.10;99.90
7174;DHT22;3628;48.654;8.932;2022-09-09T06:37:26;15.20;99.90
7174;DHT22;3628;48.654;8.932;2022-09-09T06:39:52;15.20;99.90
7174;DHT22;3628;48.654;8.932;2022-09-09T06:42:20;15.30;99.90
7174;DHT22;3628;48.654;8.932;2022-09-09T06:44:45;15.30;99.90
7174;DHT22;3628;48.654;8.932;2022-09-09T06:47:11;15.40;99.90
7174;DHT22;3628;48.654;8.932;2022-09-09T06:49:37;15.50;99.90
7174;DHT22;3628;48.654;8.932;2022-09-09T06:52:02;15.60;99.90
7174;DHT22;3628;48.654;8.932;2022-09-09T06:54:28;15.70;99.90
7174;DHT22;3628;48.654;8.932;2022-09-09T06:56:53;15.80;99.90
7174;DHT22;3628;48.654;8.932;2022-09-09T06:59:19;15.90;99.90
7174;DHT22;3628;48.654;8.932;2022-09-09T07:01:45;15.90;99.90
7174;DHT22;3628;48.654;8.932;2022-09-09T07:04:12;15.90;99.90
7174;DHT22;3628;48.654;8.932;2022-09-09T07:06:42;16.00;99.90
7174;DHT22;3628;48.654;8.932;2022-09-09T07:09:14;16.00;99.90
7174;DHT22;3628;48.654;8.932;2022-09-09T07:11:46;16.10;99.90
7174;DHT22;3628;48.654;8.932;2022-09-09T07:14:12;16.20;99.90
7174;DHT22;3628;48.654;8.932;2022-09-09T07:16:40;16.30;99.90
7174;DHT22;3628;48.654;8.932;2022-09-09T07:19:06;16.30;99.90
7174;DHT22;3628;48.654;8.932;2022-09-09T07:21:32;16.50;99.90
7174;DHT22;3628;48.654;8.932;2022-09-09T07:23:58;16.70;99.90
7174;DHT22;3628;48.654;8.932;2022-09-09T07:26:27;16.80;99.90
7174;DHT22;3628;48.654;8.932;2022-09-09T07:28:54;16.90;99.90
7174;DHT22;3628;48.654;8.932;2022-09-09T07:31:24;17.00;99.90
7174;DHT22;3628;48.654;8.932;2022-09-09T07:33:50;17.20;99.90
7174;DHT22;3628;48.654;8.932;2022-09-09T07:36:22;17.30;99.90
7174;DHT22;3628;48.654;8.932;2022-09-09T07:38:57;17.40;99.90
7174;DHT22;3628;48.654;8.932;2022-09-09T07:41:35;17.70;99.90
7174;DHT22;3628;48.654;8.932;2022-09-09T07:44:09;17.90;99.90
7174;DHT22;3628;48.654;8.932;2022-09-09T07:46:37;18.10;99.90
7174;DHT22;3628;48.654;8.932;2022-09-09T07:49:04;18.20;99.90
7174;DHT22;3628;48.654;8.932;2022-09-09T07:51:37;18.30;99.90
7174;DHT22;3628;48.654;8.932;2022-09-09T07:54:08;18.50;99.90
7174;DHT22;3628;48.654;8.932;2022-09-09T07:56:35;18.70;99.90
7174;DHT22;3628;48.654;8.932;2022-09-09T07:59:01;18.90;99.90
7174;DHT22;3628;48.654;8.932;2022-09-09T08:01:33;19.00;99.90
7174;DHT22;3628;48.654;8.932;2022-09-09T08:04:03;19.10;99.90
7174;DHT22;3628;48.654;8.932;2022-09-09T08:06:32;19.30;99.90
7174;DHT22;3628;48.654;8.932;2022-09-09T08:08:59;19.30;99.90
7174;DHT22;3628;48.654;8.932;2022-09-09T08:11:26;19.50;99.90
7174;DHT22;3628;48.654;8.932;2022-09-09T08:13:53;19.80;99.90
7174;DHT22;3628;48.654;8.932;2022-09-09T08:16:21;20.10;99.90
7174;DHT22;3628;48.654;8.932;2022-09-09T08:18:48;20.30;99.90
7174;DHT22;3628;48.654;8.932;2022-09-09T08:21:18;20.60;99.90
7174;DHT22;3628;48.654;8.932;2022-09-09T08:23:46;20.60;99.90
7174;DHT22;3628;48.654;8.932;2022-09-09T08:26:18;20.70;99.90
7174;DHT22;3628;48.654;8.932;2022-09-09T08:28:48;20.90;99.90
7174;DHT22;3628;48.654;8.932;2022-09-09T08:31:19;20.90;99.90
7174;DHT22;3628;48.654;8.932;2022-09-09T08:33:45;21.00;99.90
7174;DHT22;3628;48.654;8.932;2022-09-09T08:36:16;21.20;99.90
7174;DHT22;3628;48.654;8.932;2022-09-09T08:38:42;21.10;99.90
7174;DHT22;3628;48.654;8.932;2022-09-09T08:44:02;20.90;99.90
7174;DHT22;3628;48.654;8.932;2022-09-09T08:51:40;20.40;99.90
7174;DHT22;3628;48.654;8.932;2022-09-09T08:54:09;19.90;99.90
7174;DHT22;3628;48.654;8.932;2022-09-09T08:56:35;19.20;99.90
7174;DHT22;3628;48.654;8.932;2022-09-09T08:59:04;18.60;99.90
7174;DHT22;3628;48.654;8.932;2022-09-09T09:12:35;17.20;99.90
7174;DHT22;3628;48.654;8.932;2022-09-09T09:15:10;17.10;99.90
7174;DHT22;3628;48.654;8.932;2022-09-09T09:17:37;17.20;99.90
7174;DHT22;3628;48.654;8.932;2022-09-09T09:20:10;17.50;99.90
7174;DHT22;3628;48.654;8.932;2022-09-09T09:22:48;17.90;99.90
7174;DHT22;3628;48.654;8.932;2022-09-09T09:25:58;18.20;99.90
7174;DHT22;3628;48.654;8.932;2022-09-09T09:28:24;18.40;99.90
7174;DHT22;3628;48.654;8.932;2022-09-09T09:31:04;18.70;99.90
7174;DHT22;3628;48.654;8.932;2022-09-09T09:33:47;19.10;99.90
7174;DHT22;3628;48.654;8.932;2022-09-09T09:36:15;19.50;99.90
7174;DHT22;3628;48.654;8.932;2022-09-09T09:38:59;19.80;99.90
7174;DHT22;3628;48.654;8.932;2022-09-09T09:41:36;20.20;99.90
7174;DHT22;3628;48.654;8.932;2022-09-09T09:44:05;20.50;99.90
7174;DHT22;3628;48.654;8.932;2022-09-09T09:46:31;20.80;99.90
7174;DHT22;3628;48.654;8.932;2022-09-09T09:49:01;21.10;99.90
7174;DHT22;3628;48.654;8.932;2022-09-09T09:51:29;21.40;99.90
7174;DHT22;3628;48.654;8.932;2022-09-09T09:56:39;22.00;99.90
7174;DHT22;3628;48.654;8.932;2022-09-09T09:59:05;22.30;99.90
7174;DHT22;3628;48.654;8.932;2022-09-09T10:01:32;22.50;99.90
7174;DHT22;3628;48.654;8.932;2022-09-09T10:04:01;22.50;99.90
7174;DHT22;3628;48.654;8.932;2022-09-09T10:06:37;22.60;99.90
7174;DHT22;3628;48.654;8.932;2022-09-09T10:09:18;22.40;99.90
7174;DHT22;3628;48.654;8.932;2022-09-09T10:15:29;22.90;99.90
7174;DHT22;3628;48.654;8.932;2022-09-09T10:17:44;23.10;99.90
7174;DHT22;3628;48.654;8.932;2022-09-09T10:21:29;23.10;99.90
7174;DHT22;3628;48.654;8.932;2022-09-09T10:30:24;22.60;99.90
7174;DHT22;3628;48.654;8.932;2022-09-09T10:37:49;21.90;99.90
7174;DHT22;3628;48.654;8.932;2022-09-09T10:40:27;21.80;99.90
7174;DHT22;3628;48.654;8.932;2022-09-09T10:43:09;21.90;99.90
7174;DHT22;3628;48.654;8.932;2022-09-09T10:51:33;22.00;99.90
7174;DHT22;3628;48.654;8.932;2022-09-09T10:56:51;20.90;99.90
7174;DHT22;3628;48.654;8.932;2022-09-09T10:59:26;20.70;99.90
7174;DHT22;3628;48.654;8.932;2022-09-09T11:02:33;20.30;99.90
7174;DHT22;3628;48.654;8.932;2022-09-09T11:04:57;19.80;99.90
7174;DHT22;3628;48.654;8.932;2022-09-09T11:07:34;19.20;99.90
7174;DHT22;3628;48.654;8.932;2022-09-09T11:10:11;18.90;99.90
7174;DHT22;3628;48.654;8.932;2022-09-09T11:12:39;18.30;99.90
7174;DHT22;3628;48.654;8.932;2022-09-09T11:15:17;17.90;99.90
7174;DHT22;3628;48.654;8.932;2022-09-09T11:17:47;17.40;99.90
7174;DHT22;3628;48.654;8.932;2022-09-09T11:20:15;17.10;99.90
7174;DHT22;3628;48.654;8.932;2022-09-09T11:36:11;16.50;99.90
7174;DHT22;3628;48.654;8.932;2022-09-09T11:38:50;16.50;99.90
7174;DHT22;3628;48.654;8.932;2022-09-09T11:41:18;16.70;99.90
7174;DHT22;3628;48.654;8.932;2022-09-09T11:43:47;16.80;99.90
7174;DHT22;3628;48.654;8.932;2022-09-09T11:46:15;17.00;99.90
7174;DHT22;3628;48.654;8.932;2022-09-09T11:48:57;17.20;99.90
7174;DHT22;3628;48.654;8.932;2022-09-09T11:51:28;17.60;99.90
7174;DHT22;3628;48.654;8.932;2022-09-09T11:54:25;18.00;99.90
7174;DHT22;3628;48.654;8.932;2022-09-09T11:56:48;18.20;99.90
7174;DHT22;3628;48.654;8.932;2022-09-09T11:59:24;18.50;99.90
7174;DHT22;3628;48.654;8.932;2022-09-09T12:02:02;18.50;99.90
7174;DHT22;3628;48.654;8.932;2022-09-09T12:05:20;18.80;99.90
7174;DHT22;3628;48.654;8.932;2022-09-09T12:10:19;19.40;99.90
7174;DHT22;3628;48.654;8.932;2022-09-09T12:12:45;20.00;99.90
7174;DHT22;3628;48.654;8.932;2022-09-09T12:17:58;20.70;99.90
7174;DHT22;3628;48.654;8.932;2022-09-09T12:26:05;20.80;99.90
7174;DHT22;3628;48.654;8.932;2022-09-09T12:33:35;20.50;99.90
7174;DHT22;3628;48.654;8.932;2022-09-09T12:36:01;20.30;99.90
7174;DHT22;3628;48.654;8.932;2022-09-09T12:38:39;20.20;99.90
7174;DHT22;3628;48.654;8.932;2022-09-09T12:41:05;20.50;99.90
7174;DHT22;3628;48.654;8.932;2022-09-09T12:43:32;20.90;99.90
7174;DHT22;3628;48.654;8.932;2022-09-09T12:46:08;21.20;99.90
7174;DHT22;3628;48.654;8.932;2022-09-09T12:48:44;21.50;99.90
7174;DHT22;3628;48.654;8.932;2022-09-09T12:51:30;21.50;99.90
7174;DHT22;3628;48.654;8.932;2022-09-09T12:53:57;21.50;99.90
7174;DHT22;3628;48.654;8.932;2022-09-09T12:56:29;21.60;99.90
7174;DHT22;3628;48.654;8.932;2022-09-09T12:58:57;21.70;99.90
7174;DHT22;3628;48.654;8.932;2022-09-09T13:01:31;21.80;99.90
7174;DHT22;3628;48.654;8.932;2022-09-09T13:04:01;21.70;99.90
7174;DHT22;3628;48.654;8.932;2022-09-09T13:06:29;21.40;99.90
7174;DHT22;3628;48.654;8.932;2022-09-09T13:08:57;21.30;99.90
7174;DHT22;3628;48.654;8.932;2022-09-09T13:11:39;21.20;99.90
7174;DHT22;3628;48.654;8.932;2022-09-09T13:14:19;21.30;99.90
7174;DHT22;3628;48.654;8.932;2022-09-09T13:16:55;21.30;99.90
7174;DHT22;3628;48.654;8.932;2022-09-09T13:19:22;21.30;99.90
7174;DHT22;3628;48.654;8.932;2022-09-09T13:21:47;21.10;99.90
7174;DHT22;3628;48.654;8.932;2022-09-09T13:24:25;21.00;99.90
7174;DHT22;3628;48.654;8.932;2022-09-09T13:29:22;21.20;99.90
7174;DHT22;3628;48.654;8.932;2022-09-09T13:31:48;21.40;99.90
7174;DHT22;3628;48.654;8.932;2022-09-09T13:34:32;21.50;99.90
7174;DHT22;3628;48.654;8.932;2022-09-09T13:37:20;21.50;99.90
7174;DHT22;3628;48.654;8.932;2022-09-09T13:39:51;21.70;99.90
7174;DHT22;3628;48.654;8.932;2022-09-09T13:42:29;22.00;99.90
7174;DHT22;3628;48.654;8.932;2022-09-09T13:44:57;22.00;99.90
7174;DHT22;3628;48.654;8.932;2022-09-09T13:47:30;22.10;99.90
7174;DHT22;3628;48.654;8.932;2022-09-09T13:49:56;22.10;99.90
7174;DHT22;3628;48.654;8.932;2022-09-09T13:52:22;22.20;99.90
7174;DHT22;3628;48.654;8.932;2022-09-09T13:54:49;22.30;99.90
7174;DHT22;3628;48.654;8.932;2022-09-09T13:57:23;22.30;98.40
7174;DHT22;3628;48.654;8.932;2022-09-09T13:59:51;22.30;98.20
7174;DHT22;3628;48.654;8.932;2022-09-09T14:02:18;22.40;97.60
7174;DHT22;3628;48.654;8.932;2022-09-09T14:04:44;22.40;96.80
7174;DHT22;3628;48.654;8.932;2022-09-09T14:07:14;22.50;95.30
7174;DHT22;3628;48.654;8.932;2022-09-09T14:09:41;22.50;95.10
7174;DHT22;3628;48.654;8.932;2022-09-09T14:12:13;22.70;95.30
7174;DHT22;3628;48.654;8.932;2022-09-09T14:14:40;22.90;94.50
7174;DHT22;3628;48.654;8.932;2022-09-09T14:17:08;23.10;94.70
7174;DHT22;3628;48.654;8.932;2022-09-09T14:19:34;23.20;92.30
7174;DHT22;3628;48.654;8.932;2022-09-09T14:22:00;23.00;91.80
7174;DHT22;3628;48.654;8.932;2022-09-09T14:24:26;22.90;92.00
7174;DHT22;3628;48.654;8.932;2022-09-09T14:26:53;22.60;90.50
7174;DHT22;3628;48.654;8.932;2022-09-09T14:29:19;22.50;90.80
7174;DHT22;3628;48.654;8.932;2022-09-09T14:31:45;22.50;91.40
7174;DHT22;3628;48.654;8.932;2022-09-09T14:34:10;22.40;91.00
7174;DHT22;3628;48.654;8.932;2022-09-09T14:36:37;22.40;91.80
7174;DHT22;3628;48.654;8.932;2022-09-09T14:39:03;22.40;91.70
7174;DHT22;3628;48.654;8.932;2022-09-09T14:41:29;22.30;91.40
7174;DHT22;3628;48.654;8.932;2022-09-09T14:43:55;22.20;91.30
7174;DHT22;3628;48.654;8.932;2022-09-09T14:46:21;22.00;91.30
7174;DHT22;3628;48.654;8.932;2022-09-09T14:48:47;21.70;91.90
7174;DHT22;3628;48.654;8.932;2022-09-09T14:51:18;21.50;92.80
7174;DHT22;3628;48.654;8.932;2022-09-09T14:53:45;21.30;92.90
7174;DHT22;3628;48.654;8.932;2022-09-09T14:56:14;21.20;92.80
7174;DHT22;3628;48.654;8.932;2022-09-09T14:58:40;21.10;93.70
7174;DHT22;3628;48.654;8.932;2022-09-09T15:01:08;21.10;94.20
7174;DHT22;3628;48.654;8.932;2022-09-09T15:03:36;21.40;94.20
7174;DHT22;3628;48.654;8.932;2022-09-09T15:06:12;21.50;94.20
7174;DHT22;3628;48.654;8.932;2022-09-09T15:08:40;21.70;93.80
7174;DHT22;3628;48.654;8.932;2022-09-09T15:11:06;22.00;94.80
7174;DHT22;3628;48.654;8.932;2022-09-09T15:13:34;22.00;94.20
7174;DHT22;3628;48.654;8.932;2022-09-09T15:16:06;22.10;93.30
7174;DHT22;3628;48.654;8.932;2022-09-09T15:18:32;22.10;92.60
7174;DHT22;3628;48.654;8.932;2022-09-09T15:20:59;22.10;92.00
7174;DHT22;3628;48.654;8.932;2022-09-09T15:23:25;21.90;91.10
7174;DHT22;3628;48.654;8.932;2022-09-09T15:25:55;21.80;90.60
7174;DHT22;3628;48.654;8.932;2022-09-09T15:28:21;21.80;91.20
7174;DHT22;3628;48.654;8.932;2022-09-09T15:30:49;21.60;90.30
7174;DHT22;3628;48.654;8.932;2022-09-09T15:33:14;21.30;91.20
7174;DHT22;3628;48.654;8.932;2022-09-09T15:35:40;21.10;91.70
7174;DHT22;3628;48.654;8.932;2022-09-09T15:38:06;20.80;91.80
7174;DHT22;3628;48.654;8.932;2022-09-09T15:40:31;20.60;92.20
7174;DHT22;3628;48.654;8.932;2022-09-09T15:43:00;20.40;92.60
7174;DHT22;3628;48.654;8.932;2022-09-09T15:45:26;20.20;92.80
7174;DHT22;3628;48.654;8.932;2022-09-09T15:47:52;20.10;93.10
7174;DHT22;3628;48.654;8.932;2022-09-09T15:50:18;19.90;93.30
7174;DHT22;3628;48.654;8.932;2022-09-09T15:52:43;19.90;93.80
7174;DHT22;3628;48.654;8.932;2022-09-09T15:55:10;19.80;94.60
7174;DHT22;3628;48.654;8.932;2022-09-09T15:57:35;19.80;94.50
7174;DHT22;3628;48.654;8.932;2022-09-09T16:00:03;19.70;95.10
7174;DHT22;3628;48.654;8.932;2022-09-09T16:02:30;19.70;95.70
7174;DHT22;3628;48.654;8.932;2022-09-09T16:04:56;19.60;96.00
7174;DHT22;3628;48.654;8.932;2022-09-09T16:07:23;19.60;96.50
7174;DHT22;3628;48.654;8.932;2022-09-09T16:09:48;19.60;96.80
7174;DHT22;3628;48.654;8.932;2022-09-09T16:12:16;19.60;97.00
7174;DHT22;3628;48.654;8.932;2022-09-09T16:14:41;19.60;97.20
7174;DHT22;3628;48.654;8.932;2022-09-09T16:17:07;19.50;97.60
7174;DHT22;3628;48.654;8.932;2022-09-09T16:19:33;19.40;96.10
7174;DHT22;3628;48.654;8.932;2022-09-09T16:22:00;19.30;95.40
7174;DHT22;3628;48.654;8.932;2022-09-09T16:24:26;19.20;96.20
7174;DHT22;3628;48.654;8.932;2022-09-09T16:26:53;19.00;96.50
7174;DHT22;3628;48.654;8.932;2022-09-09T16:29:20;18.90;97.20
7174;DHT22;3628;48.654;8.932;2022-09-09T16:31:47;19.00;98.20
7174;DHT22;3628;48.654;8.932;2022-09-09T16:34:14;18.90;98.70
7174;DHT22;3628;48.654;8.932;2022-09-09T16:36:41;18.90;99.60
7174;DHT22;3628;48.654;8.932;2022-09-09T16:39:13;19.00;99.40
7174;DHT22;3628;48.654;8.932;2022-09-09T16:41:40;19.00;99.50
7174;DHT22;3628;48.654;8.932;2022-09-09T16:44:08;19.10;99.90
7174;DHT22;3628;48.654;8.932;2022-09-09T16:46:37;19.20;99.90
7174;DHT22;3628;48.654;8.932;2022-09-09T16:49:05;19.30;99.90
7174;DHT22;3628;48.654;8.932;2022-09-09T16:51:34;19.40;99.90
7174;DHT22;3628;48.654;8.932;2022-09-09T16:54:01;19.30;99.90
7174;DHT22;3628;48.654;8.932;2022-09-09T16:56:29;19.30;99.90
7174;DHT22;3628;48.654;8.932;2022-09-09T16:58:57;19.20;99.90
7174;DHT22;3628;48.654;8.932;2022-09-09T17:01:25;19.00;99.90
7174;DHT22;3628;48.654;8.932;2022-09-09T17:03:55;18.80;99.90
7174;DHT22;3628;48.654;8.932;2022-09-09T17:06:21;18.60;99.90
7174;DHT22;3628;48.654;8.932;2022-09-09T17:08:47;18.50;99.90
7174;DHT22;3628;48.654;8.932;2022-09-09T17:11:18;18.30;99.90
7174;DHT22;3628;48.654;8.932;2022-09-09T17:13:47;18.20;99.90
7174;DHT22;3628;48.654;8.932;2022-09-09T17:16:14;18.10;99.90
7174;DHT22;3628;48.654;8.932;2022-09-09T17:18:40;18.00;99.90
7174;DHT22;3628;48.654;8.932;2022-09-09T17:21:08;17.90;99.90
7174;DHT22;3628;48.654;8.932;2022-09-09T17:23:35;17.80;99.90
7174;DHT22;3628;48.654;8.932;2022-09-09T17:26:10;17.70;99.90
7174;DHT22;3628;48.654;8.932;2022-09-09T17:28:37;17.60;99.90
7174;DHT22;3628;48.654;8.932;2022-09-09T17:31:05;17.50;99.90
7174;DHT22;3628;48.654;8.932;2022-09-09T17:33:37;17.40;99.90
7174;DHT22;3628;48.654;8.932;2022-09-09T17:36:10;17.30;99.90
7174;DHT22;3628;48.654;8.932;2022-09-09T17:38:37;17.10;99.90
7174;DHT22;3628;48.654;8.932;2022-09-09T17:41:07;17.00;99.90
7174;DHT22;3628;48.654;8.932;2022-09-09T17:43:33;16.90;99.90
7174;DHT22;3628;48.654;8.932;2022-09-09T17:46:10;16.80;99.90
7174;DHT22;3628;48.654;8.932;2022-09-09T17:48:36;16.80;99.90
7174;DHT22;3628;48.654;8.932;2022-09-09T17:51:04;16.70;99.90
7174;DHT22;3628;48.654;8.932;2022-09-09T17:53:31;16.70;99.90
7174;DHT22;3628;48.654;8.932;2022-09-09T17:56:05;16.60;99.90
7174;DHT22;3628;48.654;8.932;2022-09-09T17:58:31;16.60;99.90
7174;DHT22;3628;48.654;8.932;2022-09-09T18:01:05;16.60;99.90
7174;DHT22;3628;48.654;8.932;2022-09-09T18:03:34;16.60;99.90
7174;DHT22;3628;48.654;8.932;2022-09-09T18:06:01;16.50;99.90
7174;DHT22;3628;48.654;8.932;2022-09-09T18:08:27;16.50;99.90
7174;DHT22;3628;48.654;8.932;2022-09-09T18:10:53;16.50;99.90
7174;DHT22;3628;48.654;8.932;2022-09-09T18:13:20;16.50;99.90
7174;DHT22;3628;48.654;8.932;2022-09-09T18:15:46;16.60;99.90
7174;DHT22;3628;48.654;8.932;2022-09-09T18:18:11;16.60;99.90
7174;DHT22;3628;48.654;8.932;2022-09-09T18:20:39;16.70;99.90
7174;DHT22;3628;48.654;8.932;2022-09-09T18:23:05;16.70;99.90
7174;DHT22;3628;48.654;8.932;2022-09-09T18:25:36;16.70;99.90
7174;DHT22;3628;48.654;8.932;2022-09-09T18:28:02;16.70;99.90
7174;DHT22;3628;48.654;8.932;2022-09-09T18:30:27;16.70;99.90
7174;DHT22;3628;48.654;8.932;2022-09-09T18:32:56;16.70;99.90